createdAt,value
2018-03-01T00:00:34.708Z,-16.80
2018-03-01T00:03:04.565Z,-16.90
2018-03-01T00:05:33.344Z,-16.80
2018-03-01T00:08:03.530Z,-16.90
2018-03-01T00:10:33.173Z,-16.80
2018-03-01T00:13:03.096Z,-16.80
2018-03-01T00:15:32.603Z,-16.80
2018-03-01T00:18:01.643Z,-16.90
2018-03-01T00:20:30.602Z,-17.00
2018-03-01T00:22:59.458Z,-17.00
2018-03-01T00:25:32.439Z,-17.10
2018-03-01T00:28:03.329Z,-17.10
2018-03-01T00:30:32.847Z,-17.10
2018-03-01T00:33:02.006Z,-17.10
2018-03-01T00:35:30.858Z,-17.10
2018-03-01T00:37:59.717Z,-17.10
2018-03-01T00:40:28.580Z,-17.10
2018-03-01T00:42:58.359Z,-17.00
2018-03-01T00:45:28.027Z,-17.00
2018-03-01T00:47:57.198Z,-17.00
2018-03-01T00:50:26.984Z,-17.00
2018-03-01T00:52:56.456Z,-17.00
2018-03-01T00:55:25.558Z,-17.10
2018-03-01T00:57:54.710Z,-17.10
2018-03-01T01:00:24.594Z,-17.20
2018-03-01T01:02:54.208Z,-17.20
2018-03-01T01:05:23.186Z,-17.20
2018-03-01T01:07:52.154Z,-17.20
2018-03-01T01:10:20.882Z,-17.20
2018-03-01T01:12:49.611Z,-17.10
2018-03-01T01:15:18.747Z,-17.00
2018-03-01T01:17:47.487Z,-17.00
2018-03-01T01:20:16.459Z,-17.10
2018-03-01T01:22:45.433Z,-17.10
2018-03-01T01:25:14.375Z,-17.30
2018-03-01T01:27:43.254Z,-17.30
2018-03-01T01:30:13.711Z,-17.50
2018-03-01T01:32:42.749Z,-17.50
2018-03-01T01:35:11.733Z,-17.60
2018-03-01T01:37:40.765Z,-17.60
2018-03-01T01:40:10.684Z,-17.40
2018-03-01T01:42:39.585Z,-17.40
2018-03-01T01:45:08.461Z,-17.40
2018-03-01T01:47:38.261Z,-17.40
2018-03-01T01:50:06.963Z,-17.50
2018-03-01T01:52:37.123Z,-17.60
2018-03-01T01:55:06.039Z,-17.60
2018-03-01T01:57:34.930Z,-17.60
2018-03-01T02:00:03.654Z,-17.60
2018-03-01T02:02:33.535Z,-17.60
2018-03-01T02:05:02.582Z,-17.60
2018-03-01T02:07:31.466Z,-17.60
2018-03-01T02:10:00.385Z,-17.50
2018-03-01T02:12:29.253Z,-17.50
2018-03-01T02:14:58.123Z,-17.60
2018-03-01T02:17:27.017Z,-17.60
2018-03-01T02:19:57.451Z,-17.60
2018-03-01T02:22:27.516Z,-17.60
2018-03-01T02:24:56.486Z,-17.60
2018-03-01T02:27:25.452Z,-17.60
2018-03-01T02:29:55.174Z,-17.60
2018-03-01T02:32:24.062Z,-17.60
2018-03-01T02:34:53.218Z,-17.60
2018-03-01T02:37:22.119Z,-17.60
2018-03-01T02:39:50.998Z,-17.60
2018-03-01T02:42:19.892Z,-17.60
2018-03-01T02:44:48.767Z,-17.60
2018-03-01T02:47:17.671Z,-17.60
2018-03-01T02:49:46.400Z,-17.60
2018-03-01T02:52:16.170Z,-17.50
2018-03-01T02:54:45.329Z,-17.50
2018-03-01T02:57:14.259Z,-17.40
2018-03-01T02:59:42.967Z,-17.50
2018-03-01T03:02:12.009Z,-17.50
2018-03-01T03:04:40.879Z,-17.60
2018-03-01T03:07:09.759Z,-17.70
2018-03-01T03:09:39.298Z,-17.80
2018-03-01T03:12:08.978Z,-17.80
2018-03-01T03:14:39.190Z,-17.60
2018-03-01T03:17:09.598Z,-17.60
2018-03-01T03:19:39.002Z,-17.60
2018-03-01T03:22:08.017Z,-17.60
2018-03-01T03:24:37.904Z,-17.60
2018-03-01T03:27:06.879Z,-17.60
2018-03-01T03:29:35.839Z,-17.60
2018-03-01T03:32:04.730Z,-17.70
2018-03-01T03:34:33.650Z,-17.80
2018-03-01T03:37:02.507Z,-17.80
2018-03-01T03:39:31.398Z,-17.80
2018-03-01T03:42:01.186Z,-17.80
2018-03-01T03:44:29.900Z,-17.80
2018-03-01T03:46:59.046Z,-17.80
2018-03-01T03:49:27.821Z,-17.90
2018-03-01T03:51:56.847Z,-17.90
2018-03-01T03:54:25.704Z,-17.90
2018-03-01T03:56:54.590Z,-18.10
2018-03-01T03:59:23.461Z,-18.10
2018-03-01T04:01:52.345Z,-18.10
2018-03-01T04:04:21.248Z,-18.00
2018-03-01T04:06:50.119Z,-17.90
2018-03-01T04:09:20.041Z,-18.00
2018-03-01T04:11:48.912Z,-18.00
2018-03-01T04:14:17.803Z,-18.10
2018-03-01T04:16:48.430Z,-18.10
2018-03-01T04:19:17.500Z,-18.10
2018-03-01T04:21:46.495Z,-18.10
2018-03-01T04:24:15.378Z,-18.10
2018-03-01T04:26:44.271Z,-18.00
2018-03-01T04:29:13.139Z,-18.00
2018-03-01T04:31:42.019Z,-18.00
2018-03-01T04:34:11.039Z,-18.00
2018-03-01T04:36:39.806Z,-18.10
2018-03-01T04:39:08.537Z,-18.00
2018-03-01T04:41:37.532Z,-18.00
2018-03-01T04:44:06.445Z,-18.10
2018-03-01T04:46:35.326Z,-18.00
2018-03-01T04:49:04.210Z,-18.00
2018-03-01T04:51:33.079Z,-18.00
2018-03-01T04:54:01.971Z,-17.90
2018-03-01T04:56:30.838Z,-17.90
2018-03-01T04:58:59.718Z,-18.00
2018-03-01T05:01:29.500Z,-18.00
2018-03-01T05:03:58.507Z,-18.10
2018-03-01T05:06:28.260Z,-18.00
2018-03-01T05:08:57.262Z,-18.00
2018-03-01T05:11:26.144Z,-18.00
2018-03-01T05:13:55.038Z,-17.90
2018-03-01T05:16:23.907Z,-17.80
2018-03-01T05:18:53.775Z,-17.60
2018-03-01T05:21:22.675Z,-17.60
2018-03-01T05:23:51.554Z,-17.60
2018-03-01T05:26:20.446Z,-17.50
2018-03-01T05:28:49.350Z,-17.50
2018-03-01T05:31:18.267Z,-17.40
2018-03-01T05:33:47.830Z,-17.30
2018-03-01T05:36:16.911Z,-17.30
2018-03-01T05:38:45.853Z,-17.20
2018-03-01T05:41:14.744Z,-17.00
2018-03-01T05:43:43.642Z,-16.90
2018-03-01T05:46:13.482Z,-16.60
2018-03-01T05:48:42.387Z,-16.70
2018-03-01T05:51:11.262Z,-16.70
2018-03-01T05:53:40.145Z,-16.50
2018-03-01T05:56:09.010Z,-16.50
2018-03-01T05:58:37.920Z,-16.60
2018-03-01T06:01:07.775Z,-16.70
2018-03-01T06:03:36.678Z,-16.70
2018-03-01T06:06:05.656Z,-16.60
2018-03-01T06:08:35.146Z,-16.50
2018-03-01T06:11:04.121Z,-16.30
2018-03-01T06:13:33.185Z,-16.20
2018-03-01T06:16:02.077Z,-16.10
2018-03-01T06:18:30.940Z,-15.90
2018-03-01T06:20:59.850Z,-15.80
2018-03-01T06:23:28.730Z,-15.60
2018-03-01T06:28:46.735Z,-15.20
2018-03-01T06:31:27.504Z,-15.00
2018-03-01T06:33:57.335Z,-14.70
2018-03-01T06:36:26.420Z,-14.70
2018-03-01T06:39:00.800Z,-14.20
2018-03-01T06:41:30.033Z,-14.20
2018-03-01T06:44:03.144Z,-13.80
2018-03-01T06:46:40.836Z,-13.80
2018-03-01T06:49:10.606Z,-13.30
2018-03-01T06:51:40.460Z,-13.30
2018-03-01T06:54:10.174Z,-13.20
2018-03-01T06:56:39.506Z,-12.90
2018-03-01T06:59:08.654Z,-12.70
2018-03-01T07:01:38.285Z,-12.60
2018-03-01T07:07:44.870Z,-12.50
2018-03-01T07:10:14.031Z,-12.60
2018-03-01T07:12:44.596Z,-12.40
2018-03-01T07:15:15.539Z,-12.10
2018-03-01T07:17:49.028Z,-12.10
2018-03-01T07:20:18.248Z,-11.80
2018-03-01T07:22:47.270Z,-10.80
2018-03-01T07:25:16.228Z,-9.60
2018-03-01T07:27:45.545Z,-9.00
2018-03-01T07:32:48.094Z,-9.10
2018-03-01T07:35:17.770Z,-9.10
2018-03-01T07:37:46.559Z,-9.20
2018-03-01T07:40:15.529Z,-8.40
2018-03-01T07:42:44.366Z,-7.40
2018-03-01T07:45:13.170Z,-5.40
2018-03-01T07:47:42.117Z,-4.00
2018-03-01T07:50:11.015Z,-4.20
2018-03-01T07:52:39.881Z,-4.50
2018-03-01T07:55:08.758Z,-4.70
2018-03-01T07:57:37.638Z,-4.50
2018-03-01T08:00:06.534Z,-3.50
2018-03-01T08:02:36.307Z,-0.70
2018-03-01T08:05:05.265Z,-0.80
2018-03-01T08:07:34.137Z,-0.30
2018-03-01T08:10:04.694Z,-0.50
2018-03-01T08:12:33.755Z,-0.50
2018-03-01T08:15:03.514Z,0.10
2018-03-01T08:17:32.545Z,0.10
2018-03-01T08:20:01.538Z,0.00
2018-03-01T08:22:30.390Z,0.40
2018-03-01T08:24:59.110Z,1.10
2018-03-01T08:27:28.122Z,1.70
2018-03-01T08:29:59.970Z,2.00
2018-03-01T08:32:28.913Z,2.00
2018-03-01T08:34:57.609Z,1.80
2018-03-01T08:37:26.381Z,0.90
2018-03-01T08:39:56.384Z,2.20
2018-03-01T08:42:27.434Z,3.00
2018-03-01T08:44:57.185Z,3.30
2018-03-01T08:47:26.214Z,3.30
2018-03-01T08:49:55.080Z,3.90
2018-03-01T08:52:23.961Z,4.50
2018-03-01T08:54:52.830Z,3.30
2018-03-01T08:57:21.763Z,2.20
2018-03-01T08:59:50.589Z,1.70
2018-03-01T09:02:19.462Z,2.60
2018-03-01T09:04:48.334Z,3.30
2018-03-01T09:07:17.098Z,3.10
2018-03-01T09:09:46.068Z,2.60
2018-03-01T09:12:14.996Z,2.20
2018-03-01T09:14:43.846Z,2.30
2018-03-01T09:17:12.730Z,2.40
2018-03-01T09:19:42.502Z,3.30
2018-03-01T09:22:11.215Z,3.30
2018-03-01T09:24:40.715Z,4.30
2018-03-01T09:27:09.653Z,4.30
2018-03-01T09:29:38.591Z,4.50
2018-03-01T09:32:07.304Z,5.00
2018-03-01T09:34:36.886Z,5.80
2018-03-01T09:37:05.762Z,5.70
2018-03-01T09:39:34.650Z,5.80
2018-03-01T09:42:03.358Z,5.00
2018-03-01T09:44:32.118Z,4.60
2018-03-01T09:47:01.242Z,4.30
2018-03-01T09:49:29.974Z,5.50
2018-03-01T09:51:58.751Z,5.50
2018-03-01T09:54:28.223Z,4.80
2018-03-01T09:56:56.953Z,4.80
2018-03-01T09:59:25.681Z,5.30
2018-03-01T10:01:54.554Z,6.10
2018-03-01T10:04:23.308Z,6.40
2018-03-01T10:06:52.966Z,3.30
2018-03-01T10:09:21.987Z,3.30
2018-03-01T10:11:50.994Z,2.80
2018-03-01T10:14:19.962Z,2.40
2018-03-01T10:16:48.887Z,1.60
2018-03-01T10:19:17.616Z,0.60
2018-03-01T10:21:46.360Z,0.30
2018-03-01T10:24:15.892Z,-0.40
2018-03-01T10:26:45.151Z,-0.40
2018-03-01T10:29:13.992Z,0.20
2018-03-01T10:31:43.026Z,0.40
2018-03-01T10:34:12.036Z,0.20
2018-03-01T10:36:40.962Z,0.50
2018-03-01T10:39:09.844Z,0.80
2018-03-01T10:41:38.729Z,-0.90
2018-03-01T10:44:07.598Z,-0.10
2018-03-01T10:46:36.494Z,-0.30
2018-03-01T10:49:05.182Z,0.60
2018-03-01T10:51:33.902Z,1.40
2018-03-01T10:54:03.262Z,2.40
2018-03-01T10:56:32.038Z,3.40
2018-03-01T10:59:00.914Z,3.50
2018-03-01T11:01:32.806Z,3.50
2018-03-01T11:04:01.601Z,2.60
2018-03-01T11:06:31.337Z,2.10
2018-03-01T11:09:00.839Z,3.10
2018-03-01T11:11:29.398Z,3.00
2018-03-01T11:13:58.270Z,3.60
2018-03-01T11:16:27.163Z,4.10
2018-03-01T11:18:56.051Z,3.90
2018-03-01T11:21:24.890Z,2.80
2018-03-01T11:23:54.590Z,0.50
2018-03-01T11:26:24.211Z,0.60
2018-03-01T11:28:53.287Z,0.60
2018-03-01T11:31:21.991Z,1.60
2018-03-01T11:33:51.052Z,1.90
2018-03-01T11:36:20.582Z,2.10
2018-03-01T11:38:49.815Z,2.40
2018-03-01T11:41:18.850Z,2.80
2018-03-01T11:43:47.591Z,2.80
2018-03-01T11:46:16.326Z,3.70
2018-03-01T11:48:45.338Z,4.60
2018-03-01T11:51:15.198Z,4.30
2018-03-01T11:53:44.159Z,4.30
2018-03-01T11:56:12.892Z,3.60
2018-03-01T11:58:41.877Z,3.20
2018-03-01T12:01:10.942Z,3.10
2018-03-01T12:03:39.887Z,3.30
2018-03-01T12:06:08.783Z,2.90
2018-03-01T12:08:37.670Z,2.70
2018-03-01T12:11:06.320Z,2.20
2018-03-01T12:13:35.419Z,1.30
2018-03-01T12:16:04.337Z,0.60
2018-03-01T12:18:33.214Z,0.30
2018-03-01T12:21:02.094Z,-0.20
2018-03-01T12:23:30.971Z,-0.50
2018-03-01T12:26:00.824Z,-1.10
2018-03-01T12:28:29.575Z,-1.10
2018-03-01T12:30:58.279Z,-1.40
2018-03-01T12:33:27.274Z,-1.60
2018-03-01T12:35:56.214Z,-1.20
2018-03-01T12:38:25.141Z,-0.80
2018-03-01T12:40:54.116Z,-1.30
2018-03-01T12:43:23.883Z,-2.10
2018-03-01T12:45:52.958Z,-2.20
2018-03-01T12:48:21.851Z,-2.30
2018-03-01T12:50:50.374Z,-1.90
2018-03-01T12:53:19.152Z,-1.70
2018-03-01T12:55:47.866Z,-1.50
2018-03-01T12:58:16.619Z,-1.80
2018-03-01T13:00:45.272Z,-1.90
2018-03-01T13:03:14.850Z,-1.60
2018-03-01T13:05:44.313Z,-1.20
2018-03-01T13:08:12.950Z,-1.30
2018-03-01T13:10:42.542Z,-0.10
2018-03-01T13:13:11.840Z,0.00
2018-03-01T13:15:40.386Z,0.00
2018-03-01T13:18:09.213Z,-0.20
2018-03-01T13:20:37.741Z,0.00
2018-03-01T13:23:06.435Z,1.00
2018-03-01T13:25:35.037Z,1.00
2018-03-01T13:28:03.606Z,1.40
2018-03-01T13:30:42.018Z,1.40
2018-03-01T13:33:16.724Z,0.90
2018-03-01T13:35:47.449Z,-0.70
2018-03-01T13:38:15.912Z,-0.80
2018-03-01T13:40:44.434Z,-0.70
2018-03-01T13:43:15.472Z,-0.60
2018-03-01T13:45:44.568Z,-0.50
2018-03-01T13:48:13.105Z,-1.20
2018-03-01T13:50:41.582Z,-1.40
2018-03-01T13:53:10.066Z,-2.10
2018-03-01T13:55:38.562Z,-2.30
2018-03-01T13:58:07.050Z,-2.40
2018-03-01T14:00:35.578Z,-3.00
2018-03-01T14:03:04.130Z,-3.00
2018-03-01T14:05:33.446Z,-3.20
2018-03-01T14:08:02.676Z,-3.40
2018-03-01T14:10:31.155Z,-3.40
2018-03-01T14:13:05.705Z,-3.10
2018-03-01T14:15:34.194Z,-3.00
2018-03-01T14:18:08.928Z,-2.70
2018-03-01T14:20:43.004Z,-2.70
2018-03-01T14:23:18.181Z,-2.80
2018-03-01T14:25:58.915Z,-3.00
2018-03-01T14:28:46.125Z,-3.20
2018-03-01T14:31:14.657Z,-3.60
2018-03-01T14:33:43.326Z,-4.00
2018-03-01T14:36:12.015Z,-4.00
2018-03-01T14:38:40.695Z,-3.90
2018-03-01T14:41:09.386Z,-4.00
2018-03-01T14:43:38.330Z,-3.80
2018-03-01T14:46:07.065Z,-3.90
2018-03-01T14:48:35.790Z,-3.90
2018-03-01T14:51:05.296Z,-4.30
2018-03-01T14:53:34.758Z,-4.40
2018-03-01T14:56:03.450Z,-4.40
2018-03-01T14:58:32.156Z,-4.60
2018-03-01T15:01:00.841Z,-4.70
2018-03-01T15:03:29.518Z,-4.70
2018-03-01T15:05:58.206Z,-4.60
2018-03-01T15:08:26.902Z,-4.70
2018-03-01T15:10:55.579Z,-4.60
2018-03-01T15:13:24.280Z,-4.70
2018-03-01T15:15:53.742Z,-4.60
2018-03-01T15:18:23.170Z,-4.60
2018-03-01T15:20:51.822Z,-4.70
2018-03-01T15:23:20.486Z,-4.80
2018-03-01T15:25:49.174Z,-4.80
2018-03-01T15:28:17.874Z,-4.70
2018-03-01T15:30:47.316Z,-4.70
2018-03-01T15:33:16.547Z,-4.70
2018-03-01T15:35:45.813Z,-4.70
2018-03-01T15:38:16.514Z,-4.70
2018-03-01T15:40:50.499Z,-4.60
2018-03-01T15:43:20.741Z,-5.00
2018-03-01T15:45:49.757Z,-5.00
2018-03-01T15:48:18.554Z,-5.00
2018-03-01T15:50:47.308Z,-5.20
2018-03-01T15:53:16.356Z,-5.20
2018-03-01T15:55:45.323Z,-5.30
2018-03-01T15:58:14.299Z,-5.50
2018-03-01T16:00:43.789Z,-5.50
2018-03-01T16:03:12.914Z,-5.70
2018-03-01T16:05:41.981Z,-5.90
2018-03-01T16:08:11.686Z,-6.00
2018-03-01T16:10:40.420Z,-6.10
2018-03-01T16:13:12.546Z,-6.20
2018-03-01T16:15:42.210Z,-6.30
2018-03-01T16:18:11.246Z,-6.30
2018-03-01T16:20:41.143Z,-6.50
2018-03-01T16:23:10.940Z,-6.60
2018-03-01T16:25:40.063Z,-6.80
2018-03-01T16:28:09.846Z,-7.10
2018-03-01T16:30:38.004Z,-7.40
2018-03-01T16:33:06.885Z,-7.50
2018-03-01T16:35:35.766Z,-7.50
2018-03-01T16:38:08.095Z,-7.60
2018-03-01T16:40:38.495Z,-7.60
2018-03-01T16:43:07.726Z,-7.70
2018-03-01T16:45:37.513Z,-7.70
2018-03-01T16:48:06.978Z,-7.70
2018-03-01T16:50:36.095Z,-7.80
2018-03-01T16:53:05.036Z,-7.90
2018-03-01T16:55:35.926Z,-7.90
2018-03-01T16:58:04.824Z,-8.00
2018-03-01T17:00:33.710Z,-8.10
2018-03-01T17:03:02.601Z,-8.20
2018-03-01T17:05:31.454Z,-8.30
2018-03-01T17:08:01.187Z,-8.60
2018-03-01T17:10:30.227Z,-8.60
2018-03-01T17:12:59.160Z,-8.70
2018-03-01T17:15:28.007Z,-8.70
2018-03-01T17:17:57.632Z,-8.70
2018-03-01T17:20:26.623Z,-8.80
2018-03-01T17:22:56.427Z,-8.80
2018-03-01T17:25:25.464Z,-8.80
2018-03-01T17:27:54.437Z,-8.90
2018-03-01T17:30:23.290Z,-9.00
2018-03-01T17:32:52.187Z,-9.00
2018-03-01T17:35:21.059Z,-9.00
2018-03-01T17:37:49.938Z,-9.00
2018-03-01T17:40:18.851Z,-9.00
2018-03-01T17:42:47.717Z,-8.90
2018-03-01T17:45:16.784Z,-8.80
2018-03-01T17:47:46.188Z,-8.80
2018-03-01T17:50:16.119Z,-8.70
2018-03-01T17:52:45.101Z,-8.70
2018-03-01T17:55:15.148Z,-8.70
2018-03-01T17:57:44.013Z,-8.70
2018-03-01T18:00:12.775Z,-8.80
2018-03-01T18:02:42.412Z,-8.80
2018-03-01T18:05:18.735Z,-8.80
2018-03-01T18:07:47.598Z,-8.90
2018-03-01T18:10:16.474Z,-8.80
2018-03-01T18:12:45.360Z,-8.80
2018-03-01T18:15:14.238Z,-8.80
2018-03-01T18:17:43.106Z,-8.80
2018-03-01T18:20:12.942Z,-8.80
2018-03-01T18:22:42.717Z,-8.80
2018-03-01T18:25:12.773Z,-8.90
2018-03-01T18:27:42.355Z,-8.80
2018-03-01T18:30:11.273Z,-8.80
2018-03-01T18:32:40.418Z,-8.80
2018-03-01T18:35:09.987Z,-8.80
2018-03-01T18:37:39.817Z,-8.80
2018-03-01T18:40:08.803Z,-8.70
2018-03-01T18:42:37.898Z,-8.70
2018-03-01T18:45:06.794Z,-8.70
2018-03-01T18:47:36.674Z,-8.70
2018-03-01T18:50:07.223Z,-8.70
2018-03-01T18:52:37.144Z,-8.70
2018-03-01T18:55:07.118Z,-8.60
2018-03-01T18:57:36.813Z,-8.60
2018-03-01T19:00:04.937Z,-8.60
2018-03-01T19:02:34.595Z,-8.60
2018-03-01T19:05:03.727Z,-8.60
2018-03-01T19:07:32.670Z,-8.60
2018-03-01T19:10:01.517Z,-8.70
2018-03-01T19:12:31.343Z,-8.70
2018-03-01T19:15:00.142Z,-8.70
2018-03-01T19:17:29.885Z,-8.60
2018-03-01T19:19:58.974Z,-8.50
2018-03-01T19:22:29.076Z,-8.60
2018-03-01T19:24:58.542Z,-8.60
2018-03-01T19:27:30.865Z,-8.60
2018-03-01T19:30:01.595Z,-8.60
2018-03-01T19:32:31.288Z,-8.60
2018-03-01T19:35:00.400Z,-8.60
2018-03-01T19:37:29.971Z,-8.60
2018-03-01T19:40:00.851Z,-8.50
2018-03-01T19:42:30.738Z,-8.50
2018-03-01T19:44:59.732Z,-8.50
2018-03-01T19:47:29.654Z,-8.50
2018-03-01T19:49:58.636Z,-8.50
2018-03-01T19:52:27.470Z,-8.50
2018-03-01T19:54:56.330Z,-8.50
2018-03-01T19:57:25.193Z,-8.40
2018-03-01T19:59:54.152Z,-8.40
2018-03-01T20:02:22.939Z,-8.50
2018-03-01T20:04:51.822Z,-8.50
2018-03-01T20:07:21.671Z,-8.50
2018-03-01T20:09:50.718Z,-8.60
2018-03-01T20:12:20.129Z,-8.50
2018-03-01T20:14:50.714Z,-8.40
2018-03-01T20:17:19.890Z,-8.40
2018-03-01T20:19:49.032Z,-8.40
2018-03-01T20:22:17.916Z,-8.40
2018-03-01T20:24:46.936Z,-8.40
2018-03-01T20:27:16.378Z,-8.40
2018-03-01T20:29:45.386Z,-8.50
2018-03-01T20:32:15.152Z,-8.40
2018-03-01T20:34:44.911Z,-8.40
2018-03-01T20:37:14.400Z,-8.30
2018-03-01T20:39:43.776Z,-8.30
2018-03-01T20:42:13.735Z,-8.30
2018-03-01T20:44:42.781Z,-8.30
2018-03-01T20:47:11.716Z,-8.30
2018-03-01T20:49:41.220Z,-8.30
2018-03-01T20:52:10.263Z,-8.30
2018-03-01T20:54:39.218Z,-8.20
2018-03-01T20:57:09.135Z,-8.20
2018-03-01T20:59:37.962Z,-8.20
2018-03-01T21:02:07.103Z,-8.20
2018-03-01T21:04:36.423Z,-8.20
2018-03-01T21:07:06.614Z,-8.20
2018-03-01T21:09:36.690Z,-8.20
2018-03-01T21:12:06.026Z,-8.20
2018-03-01T21:14:35.101Z,-8.10
2018-03-01T21:17:04.077Z,-8.00
2018-03-01T21:19:33.911Z,-8.00
2018-03-01T21:22:12.531Z,-8.00
2018-03-01T21:24:41.650Z,-8.00
2018-03-01T21:27:10.555Z,-8.00
2018-03-01T21:29:39.402Z,-8.00
2018-03-01T21:32:08.228Z,-8.00
2018-03-01T21:34:36.977Z,-8.00
2018-03-01T21:37:06.747Z,-8.00
2018-03-01T21:39:35.848Z,-8.00
2018-03-01T21:42:04.750Z,-7.90
2018-03-01T21:44:33.553Z,-7.90
2018-03-01T21:47:07.351Z,-7.90
2018-03-01T21:49:37.098Z,-7.90
2018-03-01T21:52:05.273Z,-7.90
2018-03-01T21:54:33.966Z,-8.00
2018-03-01T21:57:03.558Z,-8.00
2018-03-01T21:59:32.623Z,-8.00
2018-03-01T22:02:01.703Z,-8.00
2018-03-01T22:04:30.593Z,-8.00
2018-03-01T22:06:59.514Z,-8.00
2018-03-01T22:09:30.097Z,-8.00
2018-03-01T22:11:59.251Z,-8.00
2018-03-01T22:14:29.070Z,-8.00
2018-03-01T22:16:58.021Z,-8.00
2018-03-01T22:19:26.876Z,-7.90
2018-03-01T22:21:55.738Z,-7.90
2018-03-01T22:24:25.371Z,-7.90
2018-03-01T22:26:55.264Z,-8.00
2018-03-01T22:29:25.143Z,-7.90
2018-03-01T22:31:54.208Z,-7.90
2018-03-01T22:34:23.200Z,-7.90
2018-03-01T22:36:52.047Z,-7.90
2018-03-01T22:39:22.000Z,-7.90
2018-03-01T22:41:50.821Z,-8.00
2018-03-01T22:44:19.714Z,-8.00
2018-03-01T22:46:48.580Z,-7.90
2018-03-01T22:49:17.181Z,-8.00
2018-03-01T22:51:46.239Z,-8.10
2018-03-01T22:54:15.234Z,-8.10
2018-03-01T22:56:44.244Z,-8.10
2018-03-01T22:59:13.705Z,-8.10
2018-03-01T23:01:44.300Z,-8.10
2018-03-01T23:04:13.477Z,-8.10
2018-03-01T23:06:43.144Z,-8.10
2018-03-01T23:09:13.261Z,-8.10
2018-03-01T23:11:42.300Z,-8.10
2018-03-01T23:14:11.318Z,-8.10
2018-03-01T23:16:40.208Z,-8.10
2018-03-01T23:19:09.082Z,-8.10
2018-03-01T23:21:37.936Z,-8.10
2018-03-01T23:24:07.688Z,-8.10
2018-03-01T23:26:36.700Z,-8.10
2018-03-01T23:29:05.607Z,-8.10
2018-03-01T23:31:34.520Z,-8.10
2018-03-01T23:34:03.356Z,-8.10
2018-03-01T23:36:32.232Z,-8.10
2018-03-01T23:39:01.162Z,-8.10
2018-03-01T23:41:31.175Z,-8.10
2018-03-01T23:44:01.602Z,-8.20
2018-03-01T23:46:30.613Z,-8.20
2018-03-01T23:48:59.738Z,-8.20
2018-03-01T23:51:30.234Z,-8.20
2018-03-01T23:53:59.668Z,-8.20
2018-03-01T23:56:30.060Z,-8.10
2018-03-01T23:58:59.874Z,-8.10
